createdAt,value
2018-12-06T00:00:22.723Z,9.80
2018-12-06T00:01:22.697Z,6.70
2018-12-06T00:02:22.673Z,6.30
2018-12-06T00:03:22.647Z,9.70
2018-12-06T00:04:22.628Z,8.60
2018-12-06T00:05:22.602Z,8.50
2018-12-06T00:06:22.582Z,9.20
2018-12-06T00:07:22.556Z,7.80
2018-12-06T00:08:22.535Z,9.90
2018-12-06T00:09:22.510Z,7.80
2018-12-06T00:10:22.484Z,8.40
2018-12-06T00:11:22.468Z,8.70
2018-12-06T00:12:22.444Z,7.70
2018-12-06T00:13:22.421Z,9.30
2018-12-06T00:14:22.392Z,7.80
2018-12-06T00:15:22.370Z,8.70
2018-12-06T00:16:22.346Z,8.70
2018-12-06T00:17:22.321Z,6.80
2018-12-06T00:18:22.301Z,9.10
2018-12-06T00:19:22.274Z,8.40
2018-12-06T00:20:22.250Z,9.50
2018-12-06T00:21:22.226Z,9.20
2018-12-06T00:22:22.207Z,7.30
2018-12-06T00:23:22.180Z,10.20
2018-12-06T00:24:22.369Z,7.70
2018-12-06T00:25:22.142Z,8.30
2018-12-06T00:26:22.109Z,8.50
2018-12-06T00:27:22.088Z,9.80
2018-12-06T00:28:22.066Z,9.80
2018-12-06T00:29:22.039Z,7.60
2018-12-06T00:30:22.017Z,9.40
2018-12-06T00:31:21.992Z,8.80
2018-12-06T00:32:21.970Z,8.90
2018-12-06T00:33:21.946Z,7.80
2018-12-06T00:34:21.925Z,9.00
2018-12-06T00:35:21.898Z,8.10
2018-12-06T00:36:21.877Z,9.10
2018-12-06T00:37:21.856Z,7.70
2018-12-06T00:38:21.831Z,11.10
2018-12-06T00:39:21.805Z,8.90
2018-12-06T00:40:21.787Z,6.90
2018-12-06T00:41:21.753Z,8.90
2018-12-06T00:42:21.733Z,9.00
2018-12-06T00:43:21.709Z,8.10
2018-12-06T00:44:21.687Z,7.20
2018-12-06T00:45:21.665Z,9.00
2018-12-06T00:46:21.646Z,8.60
2018-12-06T00:47:21.613Z,8.50
2018-12-06T00:48:21.598Z,7.50
2018-12-06T00:49:21.567Z,8.40
2018-12-06T00:50:21.548Z,6.20
2018-12-06T00:51:21.526Z,9.20
2018-12-06T00:52:21.504Z,7.80
2018-12-06T00:53:21.477Z,7.80
2018-12-06T00:54:21.505Z,9.50
2018-12-06T00:55:21.429Z,8.00
2018-12-06T00:56:21.404Z,10.00
2018-12-06T00:57:21.382Z,8.60
2018-12-06T00:58:21.369Z,9.20
2018-12-06T00:59:21.341Z,8.00
2018-12-06T01:00:21.313Z,9.50
2018-12-06T01:01:21.287Z,10.40
2018-12-06T01:02:21.263Z,8.30
2018-12-06T01:03:21.244Z,8.50
2018-12-06T01:04:21.219Z,8.00
2018-12-06T01:05:21.194Z,8.70
2018-12-06T01:06:21.175Z,8.90
2018-12-06T01:07:21.152Z,9.10
2018-12-06T01:08:21.125Z,8.80
2018-12-06T01:09:21.101Z,8.00
2018-12-06T01:10:21.084Z,8.90
2018-12-06T01:11:21.055Z,9.20
2018-12-06T01:12:21.035Z,7.30
2018-12-06T01:13:21.007Z,9.30
2018-12-06T01:14:20.983Z,8.70
2018-12-06T01:15:20.964Z,9.00
2018-12-06T01:16:20.940Z,7.10
2018-12-06T01:17:20.913Z,9.90
2018-12-06T01:18:20.892Z,9.50
2018-12-06T01:19:20.868Z,8.20
2018-12-06T01:20:20.847Z,8.40
2018-12-06T01:21:20.827Z,9.80
2018-12-06T01:22:20.799Z,8.00
2018-12-06T01:23:20.856Z,7.50
2018-12-06T01:24:20.760Z,8.60
2018-12-06T01:25:20.729Z,7.90
2018-12-06T01:26:20.709Z,8.00
2018-12-06T01:27:20.682Z,8.60
2018-12-06T01:28:20.666Z,9.60
2018-12-06T01:29:20.634Z,7.60
2018-12-06T01:30:20.612Z,6.60
2018-12-06T01:31:20.596Z,10.60
2018-12-06T01:32:20.562Z,9.10
2018-12-06T01:33:20.542Z,6.80
2018-12-06T01:34:20.522Z,8.40
2018-12-06T01:35:20.495Z,7.40
2018-12-06T01:36:20.471Z,6.50
2018-12-06T01:37:20.450Z,8.50
2018-12-06T01:38:20.422Z,9.40
2018-12-06T01:39:20.400Z,7.80
2018-12-06T01:40:20.380Z,9.00
2018-12-06T01:41:20.354Z,10.80
2018-12-06T01:42:20.334Z,9.20
2018-12-06T01:43:20.314Z,6.80
2018-12-06T01:44:20.296Z,9.90
2018-12-06T01:45:20.264Z,7.40
2018-12-06T01:46:20.245Z,7.60
2018-12-06T01:47:20.218Z,7.90
2018-12-06T01:48:20.191Z,8.30
2018-12-06T01:49:20.172Z,8.00
2018-12-06T01:50:20.146Z,9.10
2018-12-06T01:51:20.124Z,7.10
2018-12-06T01:52:20.103Z,7.70
2018-12-06T01:53:20.076Z,8.10
2018-12-06T01:54:20.054Z,8.00
2018-12-06T01:55:20.083Z,8.80
2018-12-06T01:56:20.007Z,8.70
2018-12-06T01:57:19.985Z,7.60
2018-12-06T01:58:19.965Z,7.20
2018-12-06T01:59:19.939Z,7.10
2018-12-06T02:00:19.917Z,7.90
2018-12-06T02:01:19.893Z,9.00
2018-12-06T02:02:19.869Z,7.40
2018-12-06T02:03:19.851Z,6.90
2018-12-06T02:04:19.825Z,8.60
2018-12-06T02:05:19.808Z,8.10
2018-12-06T02:06:19.777Z,7.90
2018-12-06T02:07:19.749Z,8.00
2018-12-06T02:08:19.732Z,8.90
2018-12-06T02:09:19.706Z,8.00
2018-12-06T02:10:19.687Z,7.10
2018-12-06T02:11:19.659Z,7.90
2018-12-06T02:12:19.647Z,6.80
2018-12-06T02:13:19.619Z,9.60
2018-12-06T02:14:19.589Z,7.90
2018-12-06T02:15:19.572Z,8.80
2018-12-06T02:16:19.541Z,5.70
2018-12-06T02:17:19.519Z,6.60
2018-12-06T02:18:19.495Z,7.80
2018-12-06T02:19:19.481Z,8.40
2018-12-06T02:20:19.453Z,6.60
2018-12-06T02:21:19.427Z,8.40
2018-12-06T02:22:19.408Z,7.70
2018-12-06T02:23:19.381Z,6.40
2018-12-06T02:24:19.359Z,7.00
2018-12-06T02:25:19.342Z,7.80
2018-12-06T02:26:19.313Z,6.30
2018-12-06T02:27:19.293Z,5.80
2018-12-06T02:28:19.345Z,9.60
2018-12-06T02:29:19.243Z,5.60
2018-12-06T02:30:19.228Z,8.50
2018-12-06T02:31:19.206Z,6.70
2018-12-06T02:32:19.172Z,6.40
2018-12-06T02:33:19.173Z,7.50
2018-12-06T02:34:19.136Z,8.30
2018-12-06T02:35:19.111Z,7.40
2018-12-06T02:36:19.079Z,8.10
2018-12-06T02:37:19.057Z,6.80
2018-12-06T02:38:19.035Z,7.90
2018-12-06T02:39:19.012Z,6.50
2018-12-06T02:40:18.987Z,6.30
2018-12-06T02:41:18.964Z,8.30
2018-12-06T02:42:18.942Z,7.30
2018-12-06T02:43:18.943Z,6.20
2018-12-06T02:44:18.898Z,6.30
2018-12-06T02:45:18.877Z,8.50
2018-12-06T02:46:18.855Z,5.40
2018-12-06T02:47:18.829Z,8.10
2018-12-06T02:48:18.805Z,6.90
2018-12-06T02:49:18.775Z,8.90
2018-12-06T02:50:18.759Z,6.60
2018-12-06T02:51:18.730Z,8.10
2018-12-06T02:52:18.711Z,6.80
2018-12-06T02:53:18.687Z,6.60
2018-12-06T02:54:18.673Z,8.10
2018-12-06T02:55:18.639Z,6.80
2018-12-06T02:56:18.620Z,5.40
2018-12-06T02:57:18.594Z,6.90
2018-12-06T02:58:18.580Z,7.60
2018-12-06T02:59:18.552Z,6.90
2018-12-06T03:00:18.536Z,7.70
2018-12-06T03:01:18.504Z,6.10
2018-12-06T03:02:18.479Z,6.60
2018-12-06T03:03:18.457Z,5.20
2018-12-06T03:04:18.433Z,7.00
2018-12-06T03:05:18.420Z,7.70
2018-12-06T03:06:18.386Z,6.40
2018-12-06T03:07:18.368Z,6.80
2018-12-06T03:08:18.340Z,6.90
2018-12-06T03:09:18.325Z,5.60
2018-12-06T03:10:18.295Z,7.30
2018-12-06T03:11:18.271Z,6.30
2018-12-06T03:12:18.253Z,7.20
2018-12-06T03:13:18.230Z,6.80
2018-12-06T03:14:18.201Z,6.60
2018-12-06T03:15:18.188Z,7.50
2018-12-06T03:16:18.162Z,5.80
2018-12-06T03:17:18.141Z,7.40
2018-12-06T03:18:18.108Z,5.80
2018-12-06T03:19:18.087Z,6.80
2018-12-06T03:20:18.065Z,6.50
2018-12-06T03:21:18.049Z,6.20
2018-12-06T03:22:18.019Z,6.90
2018-12-06T03:23:18.005Z,7.80
2018-12-06T03:24:17.976Z,5.60
2018-12-06T03:25:17.948Z,6.90
2018-12-06T03:26:17.933Z,8.50
2018-12-06T03:27:17.905Z,5.90
2018-12-06T03:28:17.880Z,5.40
2018-12-06T03:29:17.859Z,6.70
2018-12-06T03:30:17.836Z,6.40
2018-12-06T03:31:17.813Z,6.20
2018-12-06T03:32:17.791Z,5.60
2018-12-06T03:33:17.765Z,6.00
2018-12-06T03:34:17.744Z,6.90
2018-12-06T03:35:17.728Z,5.30
2018-12-06T03:36:17.694Z,7.00
2018-12-06T03:37:17.673Z,6.50
2018-12-06T03:38:17.648Z,7.20
2018-12-06T03:39:17.629Z,5.60
2018-12-06T03:40:17.605Z,5.50
2018-12-06T03:41:17.581Z,4.90
2018-12-06T03:42:17.561Z,6.80
2018-12-06T03:43:17.535Z,6.10
2018-12-06T03:44:17.520Z,5.70
2018-12-06T03:45:17.494Z,6.00
2018-12-06T03:46:17.465Z,6.50
2018-12-06T03:47:17.444Z,5.00
2018-12-06T03:48:17.435Z,6.00
2018-12-06T03:49:17.403Z,5.80
2018-12-06T03:50:17.384Z,7.50
2018-12-06T03:51:17.351Z,5.00
2018-12-06T03:52:17.331Z,5.50
2018-12-06T03:53:17.303Z,4.60
2018-12-06T03:54:17.287Z,5.80
2018-12-06T03:55:17.259Z,5.10
2018-12-06T03:56:17.244Z,5.90
2018-12-06T03:57:17.213Z,5.50
2018-12-06T03:58:17.192Z,5.30
2018-12-06T03:59:17.171Z,5.80
2018-12-06T04:00:17.149Z,5.00
2018-12-06T04:01:17.234Z,7.40
2018-12-06T04:02:17.101Z,4.80
2018-12-06T04:03:17.078Z,4.90
2018-12-06T04:04:17.100Z,4.30
2018-12-06T04:05:17.028Z,4.30
2018-12-06T04:06:17.007Z,6.20
2018-12-06T04:07:16.984Z,5.50
2018-12-06T04:08:16.964Z,4.80
2018-12-06T04:09:16.942Z,4.90
2018-12-06T04:10:16.918Z,6.40
2018-12-06T04:11:16.894Z,5.70
2018-12-06T04:12:16.868Z,4.90
2018-12-06T04:13:16.849Z,5.40
2018-12-06T04:14:16.821Z,6.00
2018-12-06T04:15:16.801Z,5.00
2018-12-06T04:16:16.778Z,5.80
2018-12-06T04:17:16.754Z,5.40
2018-12-06T04:18:16.735Z,4.80
2018-12-06T04:19:16.708Z,4.70
2018-12-06T04:20:16.688Z,6.60
2018-12-06T04:21:16.670Z,8.40
2018-12-06T04:22:16.648Z,5.40
2018-12-06T04:23:16.614Z,6.00
2018-12-06T04:24:16.597Z,4.80
2018-12-06T04:25:16.574Z,5.10
2018-12-06T04:26:16.546Z,6.10
2018-12-06T04:27:16.528Z,5.60
2018-12-06T04:28:16.502Z,5.20
2018-12-06T04:29:16.479Z,4.20
2018-12-06T04:30:16.455Z,6.30
2018-12-06T04:31:16.433Z,4.50
2018-12-06T04:32:17.532Z,4.80
2018-12-06T04:33:16.395Z,4.20
2018-12-06T04:34:16.365Z,5.10
2018-12-06T04:35:16.345Z,6.40
2018-12-06T04:36:16.316Z,4.50
2018-12-06T04:37:16.297Z,5.20
2018-12-06T04:38:16.280Z,5.70
2018-12-06T04:39:16.258Z,5.90
2018-12-06T04:40:16.234Z,5.60
2018-12-06T04:41:16.203Z,4.70
2018-12-06T04:42:16.178Z,5.10
2018-12-06T04:43:16.165Z,4.60
2018-12-06T04:44:16.135Z,5.10
2018-12-06T04:45:16.111Z,4.40
2018-12-06T04:46:16.090Z,5.30
2018-12-06T04:47:16.076Z,6.00
2018-12-06T04:48:21.951Z,4.80
2018-12-06T04:49:16.021Z,4.80
2018-12-06T04:50:15.997Z,5.10
2018-12-06T04:51:15.982Z,4.00
2018-12-06T04:52:15.953Z,6.60
2018-12-06T04:53:15.935Z,4.20
2018-12-06T04:54:15.906Z,3.50
2018-12-06T04:55:15.886Z,6.90
2018-12-06T04:56:15.873Z,4.50
2018-12-06T04:57:15.836Z,4.30
2018-12-06T04:58:15.821Z,4.40
2018-12-06T04:59:15.797Z,5.70
2018-12-06T05:00:15.773Z,4.60
2018-12-06T05:01:15.776Z,5.40
2018-12-06T05:02:15.727Z,4.60
2018-12-06T05:03:15.701Z,3.90
2018-12-06T05:04:15.683Z,4.20
2018-12-06T05:05:15.663Z,4.80
2018-12-06T05:06:15.634Z,4.50
2018-12-06T05:07:15.610Z,4.80
2018-12-06T05:08:15.592Z,4.50
2018-12-06T05:09:15.565Z,4.40
2018-12-06T05:10:15.543Z,4.20
2018-12-06T05:11:15.519Z,3.80
2018-12-06T05:12:15.501Z,4.80
2018-12-06T05:13:15.476Z,4.60
2018-12-06T05:14:15.459Z,4.80
2018-12-06T05:15:15.429Z,4.70
2018-12-06T05:16:15.404Z,3.90
2018-12-06T05:17:15.383Z,5.70
2018-12-06T05:18:15.360Z,5.50
2018-12-06T05:19:15.338Z,3.80
2018-12-06T05:20:15.316Z,5.30
2018-12-06T05:21:15.295Z,4.00
2018-12-06T05:22:15.269Z,4.90
2018-12-06T05:23:15.248Z,4.40
2018-12-06T05:24:15.223Z,3.90
2018-12-06T05:25:15.200Z,4.10
2018-12-06T05:26:15.174Z,4.60
2018-12-06T05:27:15.154Z,5.20
2018-12-06T05:28:15.140Z,4.60
2018-12-06T05:29:15.105Z,4.90
2018-12-06T05:30:15.084Z,3.60
2018-12-06T05:31:15.062Z,4.60
2018-12-06T05:32:15.040Z,4.80
2018-12-06T05:33:15.012Z,4.00
2018-12-06T05:34:14.992Z,4.60
2018-12-06T05:35:14.972Z,5.80
2018-12-06T05:36:14.950Z,4.40
2018-12-06T05:37:14.928Z,5.80
2018-12-06T05:38:14.900Z,4.40
2018-12-06T05:39:14.879Z,5.10
2018-12-06T05:40:14.854Z,4.20
2018-12-06T05:41:14.833Z,4.40
2018-12-06T05:42:14.804Z,6.10
2018-12-06T05:43:14.790Z,4.10
2018-12-06T05:44:14.764Z,4.40
2018-12-06T05:45:14.741Z,4.50
2018-12-06T05:46:14.718Z,4.50
2018-12-06T05:47:14.697Z,4.10
2018-12-06T05:48:14.680Z,4.00
2018-12-06T05:49:14.648Z,4.30
2018-12-06T05:50:14.629Z,3.80
2018-12-06T05:51:14.600Z,3.60
2018-12-06T05:52:14.579Z,3.80
2018-12-06T05:53:14.556Z,4.00
2018-12-06T05:54:14.536Z,3.30
2018-12-06T05:55:14.509Z,4.50
2018-12-06T05:56:14.486Z,4.10
2018-12-06T05:57:14.463Z,3.80
2018-12-06T05:58:14.451Z,4.30
2018-12-06T05:59:14.422Z,4.50
2018-12-06T06:00:14.399Z,4.40
2018-12-06T06:01:14.375Z,3.90
2018-12-06T06:02:14.349Z,6.30
2018-12-06T06:03:14.332Z,4.80
2018-12-06T06:04:14.303Z,4.10
2018-12-06T06:05:14.286Z,4.70
2018-12-06T06:06:14.260Z,3.80
2018-12-06T06:07:14.239Z,4.60
2018-12-06T06:08:14.213Z,5.60
2018-12-06T06:09:14.190Z,4.80
2018-12-06T06:10:14.165Z,4.40
2018-12-06T06:11:14.140Z,3.40
2018-12-06T06:12:14.124Z,4.80
2018-12-06T06:13:14.102Z,4.20
2018-12-06T06:14:14.075Z,4.00
2018-12-06T06:15:14.056Z,3.90
2018-12-06T06:16:14.030Z,3.80
2018-12-06T06:17:14.007Z,3.60
2018-12-06T06:18:13.987Z,4.10
2018-12-06T06:19:13.960Z,4.30
2018-12-06T06:20:13.942Z,3.40
2018-12-06T06:21:13.918Z,3.40
2018-12-06T06:22:13.898Z,3.80
2018-12-06T06:23:13.870Z,3.40
2018-12-06T06:24:13.853Z,2.90
2018-12-06T06:25:13.826Z,4.70
2018-12-06T06:26:13.802Z,4.90
2018-12-06T06:27:13.780Z,3.30
2018-12-06T06:28:13.759Z,4.40
2018-12-06T06:29:13.738Z,4.00
2018-12-06T06:30:13.712Z,3.90
2018-12-06T06:31:13.686Z,3.50
2018-12-06T06:32:13.672Z,4.50
2018-12-06T06:33:13.642Z,4.30
2018-12-06T06:34:13.626Z,4.30
2018-12-06T06:35:13.602Z,4.30
2018-12-06T06:36:13.576Z,3.70
2018-12-06T06:37:13.554Z,4.10
2018-12-06T06:38:13.530Z,4.10
2018-12-06T06:39:13.508Z,3.60
2018-12-06T06:40:13.484Z,4.90
2018-12-06T06:41:13.459Z,3.60
2018-12-06T06:42:13.438Z,3.10
2018-12-06T06:43:13.416Z,4.50
2018-12-06T06:44:13.391Z,4.10
2018-12-06T06:45:13.366Z,3.70
2018-12-06T06:46:13.346Z,3.40
2018-12-06T06:47:13.326Z,4.70
2018-12-06T06:48:13.301Z,4.00
2018-12-06T06:49:14.016Z,4.00
2018-12-06T06:50:13.257Z,4.30
2018-12-06T06:51:13.234Z,3.80
2018-12-06T06:52:13.211Z,3.70
2018-12-06T06:53:13.190Z,4.70
2018-12-06T06:54:13.166Z,4.50
2018-12-06T06:55:13.140Z,3.90
2018-12-06T06:56:13.118Z,3.30
2018-12-06T06:57:13.096Z,5.20
2018-12-06T06:58:13.072Z,3.80
2018-12-06T06:59:13.054Z,5.80
2018-12-06T07:00:13.026Z,4.40
2018-12-06T07:01:13.006Z,5.50
2018-12-06T07:02:12.986Z,3.80
2018-12-06T07:03:12.962Z,3.70
2018-12-06T07:04:12.940Z,4.00
2018-12-06T07:05:12.916Z,3.00
2018-12-06T07:06:12.895Z,4.00
2018-12-06T07:07:12.868Z,5.40
2018-12-06T07:08:12.854Z,3.30
2018-12-06T07:09:12.823Z,3.70
2018-12-06T07:10:12.798Z,3.90
2018-12-06T07:11:12.776Z,4.30
2018-12-06T07:12:12.752Z,3.90
2018-12-06T07:13:12.736Z,3.60
2018-12-06T07:14:12.712Z,5.40
2018-12-06T07:15:12.688Z,5.80
2018-12-06T07:16:12.667Z,4.60
2018-12-06T07:17:12.641Z,4.40
2018-12-06T07:18:12.618Z,4.60
2018-12-06T07:19:12.597Z,3.20
2018-12-06T07:20:12.572Z,3.50
2018-12-06T07:21:12.552Z,3.70
2018-12-06T07:22:12.534Z,3.90
2018-12-06T07:23:12.512Z,3.70
2018-12-06T07:24:12.478Z,4.20
2018-12-06T07:25:12.462Z,4.80
2018-12-06T07:26:12.437Z,4.70
2018-12-06T07:27:12.421Z,4.00
2018-12-06T07:28:12.392Z,4.30
2018-12-06T07:29:12.376Z,3.60
2018-12-06T07:30:12.721Z,4.10
2018-12-06T07:31:12.323Z,3.30
2018-12-06T07:32:12.296Z,4.10
2018-12-06T07:33:12.276Z,4.10
2018-12-06T07:34:12.262Z,3.30
2018-12-06T07:35:12.228Z,4.30
2018-12-06T07:36:12.210Z,3.50
2018-12-06T07:37:12.186Z,4.50
2018-12-06T07:38:12.162Z,3.70
2018-12-06T07:39:12.145Z,4.60
2018-12-06T07:40:12.118Z,4.30
2018-12-06T07:41:12.094Z,4.00
2018-12-06T07:42:12.069Z,4.30
2018-12-06T07:43:12.048Z,3.60
2018-12-06T07:44:12.028Z,3.50
2018-12-06T07:45:12.002Z,3.60
2018-12-06T07:46:11.977Z,3.50
2018-12-06T07:47:11.966Z,4.20
2018-12-06T07:48:11.939Z,4.10
2018-12-06T07:49:11.916Z,4.20
2018-12-06T07:50:11.891Z,3.80
2018-12-06T07:51:11.867Z,3.70
2018-12-06T07:52:11.852Z,4.30
2018-12-06T07:53:11.823Z,4.70
2018-12-06T07:54:11.799Z,3.30
2018-12-06T07:55:11.783Z,3.50
2018-12-06T07:56:11.755Z,4.40
2018-12-06T07:57:11.733Z,3.20
2018-12-06T07:58:11.713Z,3.90
2018-12-06T07:59:11.685Z,3.50
2018-12-06T08:00:11.662Z,4.10
2018-12-06T08:01:11.639Z,4.60
2018-12-06T08:02:11.623Z,3.60
2018-12-06T08:03:11.605Z,3.60
2018-12-06T08:04:11.572Z,3.10
2018-12-06T08:05:11.549Z,3.80
2018-12-06T08:06:11.529Z,3.20
2018-12-06T08:07:11.508Z,3.80
2018-12-06T08:08:11.483Z,4.10
2018-12-06T08:09:11.459Z,3.90
2018-12-06T08:10:11.433Z,3.80
2018-12-06T08:11:11.417Z,3.50
2018-12-06T08:12:11.396Z,3.30
2018-12-06T08:13:11.372Z,4.00
2018-12-06T08:14:11.346Z,3.70
2018-12-06T08:15:11.324Z,3.50
2018-12-06T08:16:11.303Z,4.50
2018-12-06T08:17:11.283Z,3.30
2018-12-06T08:18:11.265Z,3.80
2018-12-06T08:19:11.228Z,3.00
2018-12-06T08:20:11.215Z,3.10
2018-12-06T08:21:11.191Z,3.30
2018-12-06T08:22:11.163Z,4.70
2018-12-06T08:23:11.157Z,3.40
2018-12-06T08:24:11.123Z,3.90
2018-12-06T08:25:11.095Z,5.20
2018-12-06T08:26:11.077Z,3.30
2018-12-06T08:27:11.053Z,3.80
2018-12-06T08:28:11.029Z,4.90
2018-12-06T08:29:11.011Z,3.30
2018-12-06T08:30:10.984Z,4.30
2018-12-06T08:31:10.965Z,3.30
2018-12-06T08:32:10.943Z,3.10
2018-12-06T08:33:10.915Z,3.70
2018-12-06T08:34:10.898Z,3.80
2018-12-06T08:35:10.870Z,3.60
2018-12-06T08:36:10.902Z,3.30
2018-12-06T08:37:10.831Z,3.50
2018-12-06T08:38:12.315Z,3.40
2018-12-06T08:39:10.781Z,3.50
2018-12-06T08:40:10.762Z,4.50
2018-12-06T08:41:10.737Z,3.90
2018-12-06T08:42:10.713Z,3.80
2018-12-06T08:43:10.702Z,3.70
2018-12-06T08:44:10.673Z,4.30
2018-12-06T08:45:10.647Z,4.50
2018-12-06T08:46:10.629Z,4.40
2018-12-06T08:47:10.606Z,3.60
2018-12-06T08:48:10.581Z,4.00
2018-12-06T08:49:10.559Z,3.50
2018-12-06T08:50:10.537Z,4.30
2018-12-06T08:51:10.512Z,3.60
2018-12-06T08:52:10.493Z,2.70
2018-12-06T08:53:10.474Z,3.40
2018-12-06T08:54:10.447Z,4.20
2018-12-06T08:55:10.426Z,5.70
2018-12-06T08:56:10.407Z,4.50
2018-12-06T08:57:10.379Z,4.50
2018-12-06T08:58:10.359Z,2.90
2018-12-06T08:59:10.338Z,3.50
2018-12-06T09:00:10.314Z,3.80
2018-12-06T09:01:10.291Z,3.70
2018-12-06T09:02:10.272Z,3.60
2018-12-06T09:03:10.246Z,3.00
2018-12-06T09:04:10.225Z,3.10
2018-12-06T09:05:10.204Z,3.40
2018-12-06T09:06:10.182Z,3.90
2018-12-06T09:07:10.159Z,5.00
2018-12-06T09:08:10.135Z,5.00
2018-12-06T09:09:10.115Z,3.80
2018-12-06T09:10:10.090Z,4.90
2018-12-06T09:11:10.071Z,2.90
2018-12-06T09:12:10.050Z,4.20
2018-12-06T09:13:10.026Z,3.90
2018-12-06T09:14:10.000Z,4.00
2018-12-06T09:15:09.987Z,3.10
2018-12-06T09:16:09.961Z,4.30
2018-12-06T09:17:09.934Z,3.60
2018-12-06T09:18:09.914Z,4.00
2018-12-06T09:19:09.892Z,3.40
2018-12-06T09:20:09.873Z,3.30
2018-12-06T09:21:09.849Z,8.70
2018-12-06T09:22:09.823Z,9.60
2018-12-06T09:23:09.805Z,4.00
2018-12-06T09:24:09.784Z,2.30
2018-12-06T09:25:09.760Z,3.80
2018-12-06T09:26:09.735Z,2.90
2018-12-06T09:27:09.717Z,4.10
2018-12-06T09:28:09.708Z,2.60
2018-12-06T09:29:09.671Z,5.40
2018-12-06T09:30:09.650Z,4.40
2018-12-06T09:31:09.628Z,3.30
2018-12-06T09:32:09.607Z,4.10
2018-12-06T09:33:09.581Z,4.20
2018-12-06T09:34:09.562Z,3.30
2018-12-06T09:35:09.543Z,4.90
2018-12-06T09:36:09.518Z,3.00
2018-12-06T09:37:09.489Z,4.70
2018-12-06T09:38:09.472Z,4.20
2018-12-06T09:39:09.448Z,3.30
2018-12-06T09:40:09.432Z,5.30
2018-12-06T09:41:09.408Z,4.80
2018-12-06T09:42:09.382Z,4.40
2018-12-06T09:43:09.360Z,3.30
2018-12-06T09:44:09.340Z,4.20
2018-12-06T09:45:09.316Z,3.30
2018-12-06T09:46:09.308Z,6.20
2018-12-06T09:47:09.274Z,5.30
2018-12-06T09:48:09.258Z,6.00
2018-12-06T09:49:09.226Z,7.30
2018-12-06T09:50:09.205Z,4.40
2018-12-06T09:51:09.186Z,6.60
2018-12-06T09:52:09.170Z,7.60
2018-12-06T09:53:09.140Z,7.60
2018-12-06T09:54:09.125Z,4.90
2018-12-06T09:55:09.097Z,3.70
2018-12-06T09:56:09.083Z,5.00
2018-12-06T09:57:09.049Z,4.80
2018-12-06T09:58:09.028Z,6.50
2018-12-06T09:59:09.013Z,6.00
2018-12-06T10:00:08.989Z,10.20
2018-12-06T10:01:08.964Z,8.30
2018-12-06T10:02:08.947Z,8.00
2018-12-06T10:03:08.924Z,5.00
2018-12-06T10:04:08.903Z,4.80
2018-12-06T10:05:08.876Z,5.90
2018-12-06T10:06:08.855Z,4.20
2018-12-06T10:07:08.832Z,4.50
2018-12-06T10:08:08.812Z,5.30
2018-12-06T10:09:08.792Z,7.10
2018-12-06T10:10:08.770Z,6.00
2018-12-06T10:11:08.750Z,7.60
2018-12-06T10:12:08.726Z,7.30
2018-12-06T10:13:08.699Z,5.90
2018-12-06T10:14:08.687Z,5.70
2018-12-06T10:15:08.660Z,5.90
2018-12-06T10:16:08.641Z,3.90
2018-12-06T10:17:08.612Z,5.50
2018-12-06T10:18:08.600Z,7.00
2018-12-06T10:19:08.570Z,6.40
2018-12-06T10:20:08.548Z,5.40
2018-12-06T10:21:08.526Z,5.20
2018-12-06T10:22:08.504Z,5.00
2018-12-06T10:23:08.483Z,5.10
2018-12-06T10:24:08.466Z,5.10
2018-12-06T10:25:08.437Z,5.00
2018-12-06T10:26:08.418Z,4.60
2018-12-06T10:27:08.397Z,3.50
2018-12-06T10:28:08.373Z,5.50
2018-12-06T10:29:08.351Z,6.20
2018-12-06T10:30:08.335Z,5.60
2018-12-06T10:31:08.309Z,5.90
2018-12-06T10:32:08.291Z,5.30
2018-12-06T10:33:08.271Z,5.30
2018-12-06T10:34:08.245Z,5.90
2018-12-06T10:35:08.220Z,6.90
2018-12-06T10:36:08.195Z,8.40
2018-12-06T10:37:08.177Z,6.10
2018-12-06T10:38:08.158Z,5.60
2018-12-06T10:39:08.129Z,7.60
2018-12-06T10:40:08.113Z,5.40
2018-12-06T10:41:08.088Z,4.20
2018-12-06T10:42:08.065Z,4.40
2018-12-06T10:43:08.045Z,5.10
2018-12-06T10:44:08.021Z,7.10
2018-12-06T10:45:08.001Z,3.40
2018-12-06T10:46:07.988Z,4.30
2018-12-06T10:47:07.969Z,4.00
2018-12-06T10:48:07.940Z,4.40
2018-12-06T10:49:07.914Z,4.90
2018-12-06T10:50:07.891Z,4.40
2018-12-06T10:51:07.870Z,6.30
2018-12-06T10:52:07.847Z,5.40
2018-12-06T10:53:07.826Z,4.50
2018-12-06T10:54:07.804Z,4.50
2018-12-06T10:55:07.784Z,5.10
2018-12-06T10:56:07.764Z,3.90
2018-12-06T10:57:07.738Z,4.50
2018-12-06T10:58:07.726Z,5.70
2018-12-06T10:59:07.699Z,3.70
2018-12-06T11:00:07.673Z,3.80
2018-12-06T11:01:07.653Z,4.40
2018-12-06T11:02:07.630Z,3.80
2018-12-06T11:03:07.614Z,5.00
2018-12-06T11:04:07.593Z,5.90
2018-12-06T11:05:07.570Z,3.30
2018-12-06T11:06:07.544Z,3.90
2018-12-06T11:07:07.524Z,3.40
2018-12-06T11:08:07.504Z,3.30
2018-12-06T11:09:07.475Z,3.60
2018-12-06T11:10:07.460Z,4.80
2018-12-06T11:11:07.537Z,5.50
2018-12-06T11:12:07.413Z,3.80
2018-12-06T11:13:07.393Z,6.00
2018-12-06T11:14:07.372Z,4.20
2018-12-06T11:15:07.349Z,4.40
2018-12-06T11:16:07.328Z,4.60
2018-12-06T11:17:07.304Z,4.80
2018-12-06T11:18:07.283Z,5.00
2018-12-06T11:19:07.261Z,4.40
2018-12-06T11:20:07.242Z,3.90
2018-12-06T11:21:07.217Z,4.90
2018-12-06T11:22:07.194Z,4.40
2018-12-06T11:23:07.173Z,3.90
2018-12-06T11:24:07.157Z,5.30
2018-12-06T11:25:07.132Z,3.90
2018-12-06T11:26:07.111Z,5.60
2018-12-06T11:27:07.090Z,3.50
2018-12-06T11:28:07.066Z,3.60
2018-12-06T11:29:07.045Z,3.90
2018-12-06T11:30:07.024Z,4.70
2018-12-06T11:31:07.008Z,5.00
2018-12-06T11:32:06.985Z,3.50
2018-12-06T11:33:06.961Z,4.10
2018-12-06T11:34:06.935Z,5.20
2018-12-06T11:35:06.915Z,4.50
2018-12-06T11:36:06.893Z,4.80
2018-12-06T11:37:06.874Z,3.20
2018-12-06T11:38:06.851Z,4.80
2018-12-06T11:39:06.831Z,7.30
2018-12-06T11:40:06.805Z,8.20
2018-12-06T11:41:06.791Z,5.00
2018-12-06T11:42:06.765Z,4.50
2018-12-06T11:43:06.740Z,3.90
2018-12-06T11:44:06.723Z,5.40
2018-12-06T11:45:06.696Z,4.20
2018-12-06T11:46:06.678Z,4.80
2018-12-06T11:47:06.653Z,4.90
2018-12-06T11:48:06.633Z,5.80
2018-12-06T11:49:06.613Z,4.90
2018-12-06T11:50:06.592Z,5.90
2018-12-06T11:51:06.572Z,4.70
2018-12-06T11:52:06.551Z,4.40
2018-12-06T11:53:06.530Z,5.50
2018-12-06T11:54:06.506Z,6.20
2018-12-06T11:55:06.486Z,7.40
2018-12-06T11:56:06.465Z,7.20
2018-12-06T11:57:06.442Z,4.70
2018-12-06T11:58:11.435Z,4.30
2018-12-06T11:59:06.400Z,3.70
2018-12-06T12:00:06.375Z,4.30
2018-12-06T12:01:06.362Z,4.10
2018-12-06T12:02:09.939Z,5.20
2018-12-06T12:03:06.317Z,5.00
2018-12-06T12:04:06.298Z,4.10
2018-12-06T12:05:06.273Z,4.40
2018-12-06T12:06:06.248Z,4.90
2018-12-06T12:07:06.232Z,5.00
2018-12-06T12:08:06.206Z,4.20
2018-12-06T12:09:06.189Z,4.40
2018-12-06T12:10:06.167Z,4.90
2018-12-06T12:11:06.145Z,5.10
2018-12-06T12:12:06.123Z,6.10
2018-12-06T12:13:06.160Z,4.70
2018-12-06T12:14:06.079Z,4.10
2018-12-06T12:15:06.056Z,4.30
2018-12-06T12:16:06.045Z,4.60
2018-12-06T12:17:06.023Z,3.80
2018-12-06T12:18:05.997Z,5.20
2018-12-06T12:19:05.975Z,4.20
2018-12-06T12:20:05.952Z,5.10
2018-12-06T12:21:05.931Z,4.20
2018-12-06T12:22:05.907Z,5.00
2018-12-06T12:23:05.885Z,4.30
2018-12-06T12:24:05.864Z,4.30
2018-12-06T12:25:05.843Z,4.70
2018-12-06T12:26:05.819Z,3.80
2018-12-06T12:27:05.799Z,5.40
2018-12-06T12:28:05.781Z,3.90
2018-12-06T12:29:05.763Z,4.90
2018-12-06T12:30:05.732Z,4.80
2018-12-06T12:31:05.720Z,5.20
2018-12-06T12:32:05.691Z,5.90
2018-12-06T12:33:05.673Z,5.90
2018-12-06T12:34:05.647Z,5.30
2018-12-06T12:35:05.631Z,3.80
2018-12-06T12:36:05.607Z,4.70
2018-12-06T12:37:05.589Z,5.60
2018-12-06T12:38:05.564Z,5.20
2018-12-06T12:39:05.548Z,5.30
2018-12-06T12:40:05.522Z,3.90
2018-12-06T12:41:05.503Z,3.80
2018-12-06T12:42:05.482Z,4.60
2018-12-06T12:43:05.466Z,5.20
2018-12-06T12:44:05.439Z,4.30
2018-12-06T12:45:05.416Z,4.10
2018-12-06T12:46:05.396Z,3.80
2018-12-06T12:47:05.375Z,5.00
2018-12-06T12:48:05.371Z,3.30
2018-12-06T12:49:05.334Z,4.00
2018-12-06T12:50:05.311Z,4.20
2018-12-06T12:51:05.287Z,3.80
2018-12-06T12:52:05.267Z,4.30
2018-12-06T12:53:05.242Z,4.70
2018-12-06T12:54:05.224Z,4.70
2018-12-06T12:55:05.204Z,4.00
2018-12-06T12:56:05.181Z,5.20
2018-12-06T12:57:05.168Z,4.40
2018-12-06T12:58:05.148Z,7.90
2018-12-06T12:59:05.122Z,6.40
2018-12-06T13:00:05.099Z,4.70
2018-12-06T13:01:05.074Z,6.50
2018-12-06T13:02:05.058Z,4.80
2018-12-06T13:03:05.036Z,7.00
2018-12-06T13:04:05.014Z,4.40
2018-12-06T13:05:04.993Z,5.20
2018-12-06T13:06:04.971Z,7.40
2018-12-06T13:07:04.953Z,6.00
2018-12-06T13:08:04.926Z,5.80
2018-12-06T13:09:04.903Z,6.00
2018-12-06T13:10:04.883Z,6.00
2018-12-06T13:11:04.862Z,5.70
2018-12-06T13:12:04.842Z,4.70
2018-12-06T13:13:04.817Z,4.10
2018-12-06T13:14:04.798Z,6.10
2018-12-06T13:15:04.776Z,4.10
2018-12-06T13:16:04.767Z,6.50
2018-12-06T13:17:04.734Z,3.80
2018-12-06T13:18:04.714Z,5.80